createdAt,value
2022-11-23T00:02:18.479Z,69.51
2022-11-23T00:04:45.602Z,69.51
2022-11-23T00:07:12.683Z,69.71
2022-11-23T00:09:39.777Z,69.71
2022-11-23T00:12:07.005Z,69.70
2022-11-23T00:14:34.126Z,69.63
2022-11-23T00:17:01.261Z,69.64
2022-11-23T00:19:28.327Z,69.56
2022-11-23T00:21:55.402Z,69.64
2022-11-23T00:24:22.449Z,69.66
2022-11-23T00:26:49.497Z,69.55
2022-11-23T00:29:16.568Z,69.60
2022-11-23T00:31:43.693Z,69.51
2022-11-23T00:34:10.772Z,69.54
2022-11-23T00:36:37.873Z,69.45
2022-11-23T00:39:04.996Z,69.55
2022-11-23T00:41:32.042Z,69.56
2022-11-23T00:43:59.141Z,69.51
2022-11-23T00:46:28.492Z,69.45
2022-11-23T00:48:57.316Z,69.46
2022-11-23T00:51:28.912Z,69.61
2022-11-23T00:53:56.683Z,69.72
2022-11-23T00:56:26.011Z,69.83
2022-11-23T00:58:54.893Z,69.76
2022-11-23T01:01:27.438Z,69.71
2022-11-23T01:03:57.820Z,69.63
2022-11-23T01:06:34.775Z,69.62
2022-11-23T01:09:08.844Z,69.53
2022-11-23T01:11:36.044Z,69.57
2022-11-23T01:14:03.345Z,69.59
2022-11-23T01:16:33.235Z,69.73
2022-11-23T01:19:02.717Z,69.73
2022-11-23T01:21:31.761Z,69.75
2022-11-23T01:23:59.950Z,69.76
2022-11-23T01:26:26.989Z,69.78
2022-11-23T01:28:57.592Z,69.93
2022-11-23T01:31:25.611Z,69.82
2022-11-23T01:33:53.633Z,69.93
2022-11-23T01:36:23.573Z,69.72
2022-11-23T01:38:52.433Z,69.65
2022-11-23T01:41:24.017Z,69.74
2022-11-23T01:43:53.077Z,69.60
2022-11-23T01:46:20.420Z,69.68
2022-11-23T01:49:04.646Z,69.81
2022-11-23T01:51:35.175Z,69.86
2022-11-23T01:54:12.057Z,69.91
2022-11-23T01:56:49.388Z,69.81
2022-11-23T01:59:19.387Z,69.79
2022-11-23T02:01:46.638Z,69.76
2022-11-23T02:04:22.572Z,69.74
2022-11-23T02:06:50.743Z,69.69
2022-11-23T02:09:20.224Z,69.61
2022-11-23T02:11:47.248Z,69.65
2022-11-23T02:14:17.876Z,69.70
2022-11-23T02:16:49.254Z,69.77
2022-11-23T02:19:58.063Z,69.90
2022-11-23T02:22:37.331Z,69.82
2022-11-23T02:25:11.097Z,69.79
2022-11-23T02:27:39.629Z,69.85
2022-11-23T02:30:10.565Z,69.85
2022-11-23T02:32:38.462Z,69.83
2022-11-23T02:35:05.665Z,69.76
2022-11-23T02:37:33.098Z,69.74
2022-11-23T02:40:05.264Z,69.78
2022-11-23T02:42:34.719Z,69.71
2022-11-23T02:45:34.791Z,69.83
2022-11-23T02:50:47.166Z,69.75
2022-11-23T02:53:14.702Z,69.84
2022-11-23T02:55:41.851Z,69.85
2022-11-23T02:58:09.211Z,69.73
2022-11-23T03:00:36.446Z,69.84
2022-11-23T03:03:04.101Z,69.84
2022-11-23T03:05:32.843Z,69.82
2022-11-23T03:08:04.645Z,69.80
2022-11-23T03:10:32.230Z,69.86
2022-11-23T03:12:59.561Z,69.79
2022-11-23T03:15:28.784Z,69.56
2022-11-23T03:17:58.085Z,69.66
2022-11-23T03:20:25.620Z,69.66
2022-11-23T03:22:53.820Z,69.81
2022-11-23T03:25:21.099Z,69.86
2022-11-23T03:27:51.347Z,69.94
2022-11-23T03:30:19.213Z,69.81
2022-11-23T03:32:46.364Z,69.79
2022-11-23T03:35:13.439Z,69.74
2022-11-23T03:37:58.893Z,69.74
2022-11-23T03:40:26.276Z,69.72
2022-11-23T03:43:19.872Z,69.69
2022-11-23T03:45:47.634Z,69.74
2022-11-23T03:48:16.066Z,69.81
2022-11-23T03:50:44.548Z,69.87
2022-11-23T03:53:12.417Z,69.99
2022-11-23T03:55:39.464Z,69.82
2022-11-23T03:58:07.056Z,69.87
2022-11-23T04:00:35.814Z,69.84
2022-11-23T04:03:03.729Z,69.92
2022-11-23T04:05:50.033Z,69.91
2022-11-23T04:08:35.462Z,69.95
2022-11-23T04:11:06.500Z,70.03
2022-11-23T04:13:38.693Z,69.92
2022-11-23T04:16:07.427Z,69.87
2022-11-23T04:18:34.664Z,69.81
2022-11-23T04:21:02.221Z,69.82
2022-11-23T04:23:29.293Z,69.82
2022-11-23T04:25:56.623Z,69.68
2022-11-23T04:28:23.849Z,69.82
2022-11-23T04:30:52.102Z,69.91
2022-11-23T04:33:19.482Z,69.85
2022-11-23T04:35:46.688Z,69.78
2022-11-23T04:38:14.349Z,69.76
2022-11-23T04:40:42.139Z,69.80
2022-11-23T04:43:09.830Z,69.79
2022-11-23T04:45:39.715Z,69.94
2022-11-23T04:48:09.861Z,69.89
2022-11-23T04:50:40.386Z,69.85
2022-11-23T04:53:09.334Z,69.74
2022-11-23T04:55:43.241Z,69.70
2022-11-23T04:58:10.958Z,69.92
2022-11-23T05:00:39.336Z,70.00
2022-11-23T05:03:06.717Z,70.00
2022-11-23T05:05:39.217Z,70.06
2022-11-23T05:08:07.186Z,70.00
2022-11-23T05:10:50.772Z,69.96
2022-11-23T05:13:18.998Z,69.93
2022-11-23T05:15:46.561Z,69.95
2022-11-23T05:18:16.960Z,69.91
2022-11-23T05:20:46.147Z,69.98
2022-11-23T05:23:13.796Z,69.88
2022-11-23T05:25:41.816Z,69.95
2022-11-23T05:28:39.171Z,69.98
2022-11-23T05:31:05.097Z,69.90
2022-11-23T05:33:32.324Z,69.96
2022-11-23T05:35:59.503Z,69.97
2022-11-23T05:38:35.072Z,69.97
2022-11-23T05:41:03.042Z,70.01
2022-11-23T05:43:31.065Z,69.98
2022-11-23T05:46:00.570Z,69.99
2022-11-23T05:48:28.720Z,69.93
2022-11-23T05:51:03.680Z,69.92
2022-11-23T05:53:35.155Z,69.92
2022-11-23T05:56:23.016Z,69.95
2022-11-23T05:59:05.511Z,69.95
2022-11-23T06:01:35.110Z,70.01
2022-11-23T06:04:03.465Z,70.01
2022-11-23T06:06:34.685Z,69.97
2022-11-23T06:09:02.090Z,69.96
2022-11-23T06:11:31.468Z,69.96
2022-11-23T06:14:01.819Z,69.95
2022-11-23T06:16:29.175Z,69.90
2022-11-23T06:19:02.807Z,69.93
2022-11-23T06:21:29.927Z,70.01
2022-11-23T06:23:57.077Z,70.02
2022-11-23T06:26:25.734Z,70.07
2022-11-23T06:28:53.016Z,70.00
2022-11-23T06:31:20.142Z,69.81
2022-11-23T06:33:47.343Z,69.92
2022-11-23T06:36:15.648Z,70.02
2022-11-23T06:38:46.431Z,69.89
2022-11-23T06:41:16.654Z,69.84
2022-11-23T06:43:47.083Z,69.84
2022-11-23T06:46:19.275Z,69.84
2022-11-23T06:48:47.511Z,70.01
2022-11-23T06:51:16.009Z,69.95
2022-11-23T06:53:43.696Z,70.04
2022-11-23T06:56:12.947Z,70.10
2022-11-23T06:58:40.150Z,70.11
2022-11-23T07:01:10.853Z,70.05
2022-11-23T07:03:43.366Z,70.12
2022-11-23T07:06:26.872Z,69.89
2022-11-23T07:08:56.502Z,69.88
2022-11-23T07:11:42.339Z,69.78
2022-11-23T07:14:11.794Z,69.90
2022-11-23T07:16:40.130Z,69.98
2022-11-23T07:19:08.707Z,69.98
2022-11-23T07:21:35.729Z,70.01
2022-11-23T07:24:02.828Z,69.89
2022-11-23T07:26:29.954Z,69.99
2022-11-23T07:28:57.521Z,69.91
2022-11-23T07:31:25.201Z,69.80
2022-11-23T07:33:52.327Z,69.85
2022-11-23T07:36:19.480Z,69.88
2022-11-23T07:38:46.730Z,69.77
2022-11-23T07:41:15.160Z,69.95
2022-11-23T07:44:06.582Z,70.00
2022-11-23T07:46:33.707Z,70.02
2022-11-23T07:49:02.441Z,70.08
2022-11-23T07:51:30.156Z,70.10
2022-11-23T07:53:57.795Z,70.07
2022-11-23T07:56:24.892Z,69.99
2022-11-23T07:58:51.941Z,70.01
2022-11-23T08:01:20.963Z,69.87
2022-11-23T08:03:48.792Z,69.84
2022-11-23T08:06:17.106Z,69.94
2022-11-23T08:08:44.822Z,70.00
2022-11-23T08:11:14.929Z,69.98
2022-11-23T08:13:41.991Z,69.89
2022-11-23T08:16:09.349Z,69.96
2022-11-23T08:18:36.800Z,70.03
2022-11-23T08:21:04.851Z,70.09
2022-11-23T08:23:31.874Z,69.90
2022-11-23T08:25:59.071Z,69.74
2022-11-23T08:28:26.349Z,69.81
2022-11-23T08:30:53.659Z,69.89
2022-11-23T08:33:20.806Z,69.96
2022-11-23T08:35:47.929Z,69.96
2022-11-23T08:38:15.053Z,70.05
2022-11-23T08:40:42.256Z,70.09
2022-11-23T08:43:09.433Z,70.02
2022-11-23T08:45:36.569Z,70.04
2022-11-23T08:48:04.717Z,70.04
2022-11-23T08:50:34.546Z,70.04
2022-11-23T08:53:01.566Z,69.89
2022-11-23T08:55:29.229Z,69.88
2022-11-23T08:57:57.730Z,69.83
2022-11-23T09:00:26.320Z,69.86
2022-11-23T09:02:53.705Z,69.86
2022-11-23T09:05:21.210Z,69.85
2022-11-23T09:07:48.737Z,69.93
2022-11-23T09:10:18.697Z,70.00
2022-11-23T09:12:47.629Z,70.18
2022-11-23T09:15:14.984Z,70.20
2022-11-23T09:17:42.087Z,70.16
2022-11-23T09:20:10.630Z,70.12
2022-11-23T09:22:38.001Z,70.17
2022-11-23T09:25:07.117Z,70.06
2022-11-23T09:27:34.605Z,70.00
2022-11-23T09:30:01.990Z,69.97
2022-11-23T09:32:29.390Z,69.99
2022-11-23T09:34:56.594Z,69.96
2022-11-23T09:37:23.614Z,69.89
2022-11-23T09:39:50.663Z,69.95
2022-11-23T09:42:51.734Z,69.93
2022-11-23T09:45:26.514Z,69.86
2022-11-23T09:48:14.297Z,69.89
2022-11-23T09:50:48.499Z,69.91
2022-11-23T09:53:30.462Z,69.86
2022-11-23T09:55:58.071Z,69.74
2022-11-23T09:58:31.186Z,69.93
2022-11-23T10:01:05.125Z,69.84
2022-11-23T10:03:41.531Z,69.76
2022-11-23T10:06:21.081Z,69.85
2022-11-23T10:08:56.015Z,69.97
2022-11-23T10:11:25.673Z,70.05
2022-11-23T10:13:59.275Z,70.09
2022-11-23T10:16:29.432Z,70.07
2022-11-23T10:19:27.117Z,70.00
2022-11-23T10:22:15.845Z,69.97
2022-11-23T10:24:48.115Z,69.90
2022-11-23T10:27:18.980Z,70.03
2022-11-23T10:29:46.437Z,70.02
2022-11-23T10:32:25.181Z,70.03
2022-11-23T10:35:23.392Z,70.08
2022-11-23T10:37:53.563Z,70.06
2022-11-23T10:40:27.033Z,70.03
2022-11-23T10:42:59.100Z,69.90
2022-11-23T10:45:28.424Z,69.92
2022-11-23T10:48:00.443Z,69.97
2022-11-23T10:50:40.906Z,70.01
2022-11-23T10:53:26.316Z,69.86
2022-11-23T10:55:59.264Z,69.88
2022-11-23T10:58:35.233Z,69.99
2022-11-23T11:01:06.290Z,70.10
2022-11-23T11:03:35.237Z,69.93
2022-11-23T11:06:11.222Z,70.01
2022-11-23T11:08:54.583Z,70.02
2022-11-23T11:11:23.950Z,69.98
2022-11-23T11:13:51.330Z,70.03
2022-11-23T11:16:27.348Z,70.03
2022-11-23T11:18:54.410Z,69.95
2022-11-23T11:21:24.352Z,69.90
2022-11-23T11:23:55.528Z,69.88
2022-11-23T11:26:24.954Z,69.88
2022-11-23T11:28:57.120Z,69.97
2022-11-23T11:31:26.829Z,69.95
2022-11-23T11:34:01.686Z,69.88
2022-11-23T11:36:37.747Z,69.93
2022-11-23T11:39:18.828Z,69.96
2022-11-23T11:41:49.409Z,70.08
2022-11-23T11:44:21.264Z,70.01
2022-11-23T11:46:54.456Z,70.07
2022-11-23T11:49:34.153Z,69.94
2022-11-23T11:52:08.908Z,69.98
2022-11-23T11:54:57.948Z,69.91
2022-11-23T11:57:34.140Z,69.97
2022-11-23T12:00:05.404Z,69.93
2022-11-23T12:02:54.182Z,70.18
2022-11-23T12:05:29.427Z,69.95
2022-11-23T12:08:05.716Z,69.94
2022-11-23T12:10:47.408Z,70.02
2022-11-23T12:13:38.315Z,70.12
2022-11-23T12:16:08.359Z,70.02
2022-11-23T12:18:41.148Z,69.96
2022-11-23T12:21:42.190Z,69.93
2022-11-23T12:24:25.163Z,69.94
2022-11-23T12:27:36.777Z,69.96
2022-11-23T12:30:26.215Z,69.88
2022-11-23T12:33:01.285Z,69.99
2022-11-23T12:35:40.392Z,70.02
2022-11-23T12:38:38.302Z,70.00
2022-11-23T12:41:28.812Z,69.97
2022-11-23T12:44:19.825Z,69.99
2022-11-23T12:47:08.809Z,70.03
2022-11-23T12:50:02.557Z,69.89
2022-11-23T12:52:47.936Z,69.99
2022-11-23T12:55:24.994Z,69.87
2022-11-23T12:58:13.930Z,69.92
2022-11-23T13:00:51.717Z,69.97
2022-11-23T13:03:38.056Z,69.96
2022-11-23T13:06:28.373Z,69.85
2022-11-23T13:09:17.515Z,69.87
2022-11-23T13:12:13.261Z,69.79
2022-11-23T13:14:55.491Z,69.93
2022-11-23T13:17:28.587Z,69.96
2022-11-23T13:20:10.814Z,69.94
2022-11-23T13:22:44.257Z,69.97
2022-11-23T13:25:15.750Z,69.92
2022-11-23T13:27:56.199Z,69.83
2022-11-23T13:30:59.082Z,69.79
2022-11-23T13:33:28.404Z,69.87
2022-11-23T13:36:07.116Z,69.88
2022-11-23T13:38:39.432Z,69.94
2022-11-23T13:41:35.917Z,69.89
2022-11-23T13:44:15.305Z,70.03
2022-11-23T13:46:42.330Z,70.08
2022-11-23T13:49:52.840Z,70.10
2022-11-23T13:52:22.628Z,70.05
2022-11-23T13:55:11.749Z,70.07
2022-11-23T13:57:40.460Z,70.00
2022-11-23T14:00:45.601Z,69.96
2022-11-23T14:03:44.369Z,69.82
2022-11-23T14:06:48.282Z,69.90
2022-11-23T14:09:24.495Z,69.93
2022-11-23T14:12:03.552Z,70.06
2022-11-23T14:14:42.885Z,70.11
2022-11-23T14:17:39.383Z,70.05
2022-11-23T14:20:25.416Z,70.12
2022-11-23T14:23:01.783Z,70.09
2022-11-23T14:25:41.248Z,70.09
2022-11-23T14:28:29.112Z,70.01
2022-11-23T14:31:04.557Z,69.98
2022-11-23T14:34:04.783Z,69.97
2022-11-23T14:36:39.560Z,69.94
2022-11-23T14:39:24.938Z,69.90
2022-11-23T14:41:56.440Z,69.83
2022-11-23T14:44:31.074Z,69.78
2022-11-23T14:47:05.863Z,69.77
2022-11-23T14:49:33.406Z,69.66
2022-11-23T14:52:03.269Z,69.84
2022-11-23T14:54:32.245Z,69.98
2022-11-23T14:57:02.001Z,69.97
2022-11-23T14:59:33.865Z,69.91
2022-11-23T15:02:06.540Z,69.75
2022-11-23T15:04:41.229Z,69.80
2022-11-23T15:07:21.979Z,69.86
2022-11-23T15:10:01.521Z,69.82
2022-11-23T15:12:43.727Z,69.75
2022-11-23T15:15:25.147Z,69.76
2022-11-23T15:18:00.895Z,69.83
2022-11-23T15:20:41.894Z,69.97
2022-11-23T15:23:21.488Z,69.99
2022-11-23T15:25:53.147Z,69.98
2022-11-23T15:28:26.719Z,69.98
2022-11-23T15:30:58.315Z,69.93
2022-11-23T15:33:26.424Z,69.90
2022-11-23T15:35:54.084Z,69.94
2022-11-23T15:38:23.858Z,69.96
2022-11-23T15:40:51.993Z,69.88
2022-11-23T15:43:20.097Z,69.83
2022-11-23T15:45:47.311Z,70.00
2022-11-23T15:48:26.992Z,69.91
2022-11-23T15:50:59.923Z,69.79
2022-11-23T15:53:32.195Z,69.87
2022-11-23T15:56:06.462Z,69.98
2022-11-23T15:58:35.416Z,69.94
2022-11-23T16:01:13.528Z,69.93
2022-11-23T16:03:40.568Z,69.76
2022-11-23T16:06:13.810Z,69.83
2022-11-23T16:08:41.467Z,69.87
2022-11-23T16:11:29.967Z,69.78
2022-11-23T16:14:18.417Z,69.91
2022-11-23T16:16:48.696Z,69.89
2022-11-23T16:19:24.649Z,69.85
2022-11-23T16:22:00.591Z,69.95
2022-11-23T16:24:31.640Z,69.97
2022-11-23T16:26:59.443Z,70.01
2022-11-23T16:29:31.245Z,70.00
2022-11-23T16:32:02.964Z,70.01
2022-11-23T16:34:30.425Z,70.01
2022-11-23T16:36:59.303Z,69.95
2022-11-23T16:39:27.686Z,69.82
2022-11-23T16:41:55.192Z,69.89
2022-11-23T16:44:22.215Z,69.80
2022-11-23T16:46:49.450Z,69.78
2022-11-23T16:49:20.000Z,69.83
2022-11-23T16:51:56.382Z,69.88
2022-11-23T16:54:25.466Z,69.92
2022-11-23T16:56:53.377Z,69.90
2022-11-23T16:59:20.658Z,69.96
2022-11-23T17:01:53.975Z,70.04
2022-11-23T17:04:24.487Z,70.02
2022-11-23T17:06:51.631Z,69.98
2022-11-23T17:09:18.758Z,70.06
2022-11-23T17:11:50.415Z,69.98
2022-11-23T17:14:19.305Z,69.92
2022-11-23T17:16:47.361Z,69.80
2022-11-23T17:19:16.601Z,69.85
2022-11-23T17:21:43.806Z,69.79
2022-11-23T17:24:11.618Z,69.91
2022-11-23T17:26:45.500Z,69.83
2022-11-23T17:29:16.670Z,69.85
2022-11-23T17:31:45.662Z,69.80
2022-11-23T17:34:14.068Z,69.79
2022-11-23T17:36:45.904Z,69.83
2022-11-23T17:39:20.532Z,69.90
2022-11-23T17:41:48.324Z,69.72
2022-11-23T17:44:16.418Z,69.72
2022-11-23T17:46:44.287Z,69.62
2022-11-23T17:49:14.049Z,69.74
2022-11-23T17:51:41.226Z,69.61
2022-11-23T17:54:08.191Z,69.72
2022-11-23T17:56:35.603Z,69.80
2022-11-23T17:59:02.679Z,69.83
2022-11-23T18:01:30.353Z,69.80
2022-11-23T18:04:00.969Z,69.89
2022-11-23T18:06:29.461Z,69.81
2022-11-23T18:08:57.344Z,69.81
2022-11-23T18:11:24.879Z,69.94
2022-11-23T18:13:52.080Z,69.84
2022-11-23T18:16:20.447Z,69.84
2022-11-23T18:18:48.432Z,69.68
2022-11-23T18:21:15.560Z,69.64
2022-11-23T18:23:43.294Z,69.60
2022-11-23T18:26:22.350Z,69.83
2022-11-23T18:28:49.781Z,69.87
2022-11-23T18:31:17.396Z,69.81
2022-11-23T18:33:45.106Z,69.83
2022-11-23T18:36:13.055Z,69.85
2022-11-23T18:38:40.483Z,69.80
2022-11-23T18:41:08.096Z,69.78
2022-11-23T18:43:35.325Z,69.87
2022-11-23T18:46:06.561Z,69.97
2022-11-23T18:48:34.000Z,69.90
2022-11-23T18:51:01.615Z,69.81
2022-11-23T18:53:28.789Z,69.74
2022-11-23T18:56:00.244Z,69.68
2022-11-23T18:58:32.646Z,69.65
2022-11-23T19:00:59.845Z,69.61
2022-11-23T19:03:27.051Z,69.70
2022-11-23T19:06:02.514Z,69.68
2022-11-23T19:08:30.098Z,69.73
2022-11-23T19:11:06.104Z,69.75
2022-11-23T19:13:36.379Z,69.81
2022-11-23T19:16:08.842Z,69.78
2022-11-23T19:18:35.980Z,69.81
2022-11-23T19:21:19.038Z,69.73
2022-11-23T19:23:51.120Z,69.67
2022-11-23T19:26:19.321Z,69.63
2022-11-23T19:28:47.160Z,69.63
2022-11-23T19:31:17.383Z,69.61
2022-11-23T19:33:45.818Z,69.71
2022-11-23T19:36:15.576Z,69.74
2022-11-23T19:38:43.215Z,69.67
2022-11-23T19:41:10.849Z,69.71
2022-11-23T19:43:38.026Z,69.75
2022-11-23T19:46:06.808Z,69.64
2022-11-23T19:48:34.733Z,69.64
2022-11-23T19:51:05.557Z,69.58
2022-11-23T19:53:37.816Z,69.69
2022-11-23T19:56:13.772Z,69.63
2022-11-23T19:58:42.153Z,69.60
2022-11-23T20:01:18.109Z,69.58
2022-11-23T20:03:47.543Z,69.59
2022-11-23T20:06:21.756Z,69.63
2022-11-23T20:08:55.589Z,69.65
2022-11-23T20:11:23.351Z,69.67
2022-11-23T20:13:51.069Z,69.55
2022-11-23T20:16:19.740Z,69.67
2022-11-23T20:18:49.796Z,69.76
2022-11-23T20:21:18.711Z,69.73
2022-11-23T20:23:47.625Z,69.70
2022-11-23T20:26:16.343Z,69.65
2022-11-23T20:28:43.671Z,69.62
2022-11-23T20:31:20.629Z,69.66
2022-11-23T20:33:50.667Z,69.70
2022-11-23T20:36:20.971Z,69.75
2022-11-23T20:38:48.939Z,69.81
2022-11-23T20:41:17.320Z,69.79
2022-11-23T20:43:45.850Z,69.74
2022-11-23T20:46:14.741Z,69.75
2022-11-23T20:48:52.366Z,69.75
2022-11-23T20:51:20.641Z,69.74
2022-11-23T20:53:48.896Z,69.69
2022-11-23T20:56:16.759Z,69.72
2022-11-23T20:58:44.216Z,69.71
2022-11-23T21:01:13.851Z,69.54
2022-11-23T21:03:42.284Z,69.42
2022-11-23T21:06:12.126Z,69.38
2022-11-23T21:08:43.851Z,69.51
2022-11-23T21:11:36.375Z,69.53
2022-11-23T21:14:12.400Z,69.50
2022-11-23T21:16:55.384Z,69.65
2022-11-23T21:19:27.554Z,69.74
2022-11-23T21:21:55.390Z,69.53
2022-11-23T21:24:22.871Z,69.65
2022-11-23T21:26:50.048Z,69.57
2022-11-23T21:29:18.593Z,69.48
2022-11-23T21:31:47.869Z,69.50
2022-11-23T21:34:23.512Z,69.50
2022-11-23T21:36:50.783Z,69.48
2022-11-23T21:39:18.617Z,69.52
2022-11-23T21:41:49.719Z,69.52
2022-11-23T21:44:17.382Z,69.61
2022-11-23T21:46:44.566Z,69.50
2022-11-23T21:49:11.938Z,69.59
2022-11-23T21:51:39.849Z,69.61
2022-11-23T21:54:14.095Z,69.61
2022-11-23T21:56:46.807Z,69.59
2022-11-23T21:59:14.308Z,69.64
2022-11-23T22:01:42.233Z,69.62
2022-11-23T22:04:12.013Z,69.71
2022-11-23T22:06:40.055Z,69.62
2022-11-23T22:09:09.931Z,69.58
2022-11-23T22:11:39.657Z,69.56
2022-11-23T22:14:09.280Z,69.47
2022-11-23T22:16:39.390Z,69.39
2022-11-23T22:19:07.228Z,69.31
2022-11-23T22:21:37.776Z,69.52
2022-11-23T22:24:06.221Z,69.47
2022-11-23T22:26:33.617Z,69.52
2022-11-23T22:29:02.863Z,69.55
2022-11-23T22:31:34.186Z,69.57
2022-11-23T22:34:03.697Z,69.45
2022-11-23T22:36:30.902Z,69.39
2022-11-23T22:39:02.736Z,69.38
2022-11-23T22:41:36.477Z,69.54
2022-11-23T22:44:05.815Z,69.58
2022-11-23T22:46:33.360Z,69.56
2022-11-23T22:49:01.678Z,69.57
2022-11-23T22:51:29.988Z,69.54
2022-11-23T22:53:59.266Z,69.53
2022-11-23T22:56:27.426Z,69.51
2022-11-23T22:58:55.097Z,69.43
2022-11-23T23:01:27.811Z,69.44
2022-11-23T23:03:57.142Z,69.60
2022-11-23T23:06:26.914Z,69.44
2022-11-23T23:08:59.135Z,69.42
2022-11-23T23:11:29.021Z,69.49
2022-11-23T23:13:56.559Z,69.52
2022-11-23T23:16:24.184Z,69.58
2022-11-23T23:18:51.707Z,69.47
2022-11-23T23:21:21.467Z,69.44
2022-11-23T23:23:50.970Z,69.49
2022-11-23T23:26:20.348Z,69.31
2022-11-23T23:28:48.293Z,69.22
2022-11-23T23:31:17.537Z,69.36
2022-11-23T23:33:45.898Z,69.32
2022-11-23T23:36:17.966Z,69.46
2022-11-23T23:38:45.698Z,69.44
2022-11-23T23:41:14.156Z,69.51
2022-11-23T23:43:42.440Z,69.53
2022-11-23T23:46:12.644Z,69.63
2022-11-23T23:48:41.194Z,69.69
2022-11-23T23:51:17.042Z,69.60
2022-11-23T23:53:45.167Z,69.44
2022-11-23T23:56:15.262Z,69.46
2022-11-23T23:58:42.719Z,69.38
